createdAt,value
2023-01-03T00:00:01.982Z,2.90
2023-01-03T00:00:43.831Z,3.20
2023-01-03T00:01:25.770Z,3.72
2023-01-03T00:02:07.618Z,3.50
2023-01-03T00:02:49.530Z,3.85
2023-01-03T00:03:31.240Z,3.13
2023-01-03T00:04:13.421Z,3.33
2023-01-03T00:04:55.216Z,3.55
2023-01-03T00:05:37.441Z,3.63
2023-01-03T00:06:25.403Z,3.75
2023-01-03T00:07:07.088Z,3.60
2023-01-03T00:07:48.841Z,3.25
2023-01-03T00:08:30.714Z,2.97
2023-01-03T00:09:16.000Z,3.25
2023-01-03T00:09:57.625Z,3.17
2023-01-03T00:10:39.682Z,3.55
2023-01-03T00:11:45.758Z,2.67
2023-01-03T00:12:31.184Z,3.17
2023-01-03T00:13:13.094Z,3.55
2023-01-03T00:13:54.744Z,3.00
2023-01-03T00:14:39.773Z,2.85
2023-01-03T00:15:22.241Z,3.22
2023-01-03T00:16:04.054Z,2.78
2023-01-03T00:16:51.164Z,2.72
2023-01-03T00:17:32.775Z,2.80
2023-01-03T00:18:14.348Z,3.20
2023-01-03T00:18:56.003Z,3.13
2023-01-03T00:19:40.482Z,2.53
2023-01-03T00:20:22.821Z,3.03
2023-01-03T00:21:04.642Z,2.83
2023-01-03T00:21:46.458Z,2.40
2023-01-03T00:22:32.002Z,1.80
2023-01-03T00:23:13.633Z,2.08
2023-01-03T00:23:56.249Z,3.55
2023-01-03T00:24:38.572Z,2.63
2023-01-03T00:25:20.278Z,2.17
2023-01-03T00:26:12.664Z,2.70
2023-01-03T00:26:54.309Z,2.20
2023-01-03T00:27:36.074Z,2.78
2023-01-03T00:28:17.715Z,2.85
2023-01-03T00:28:59.411Z,2.40
2023-01-03T00:29:42.378Z,2.55
2023-01-03T00:30:24.698Z,2.60
2023-01-03T00:31:08.927Z,2.17
2023-01-03T00:31:50.930Z,2.53
2023-01-03T00:32:32.563Z,2.92
2023-01-03T00:33:14.189Z,2.40
2023-01-03T00:33:56.401Z,3.05
2023-01-03T00:34:38.033Z,2.00
2023-01-03T00:35:19.593Z,2.40
2023-01-03T00:36:06.074Z,2.10
2023-01-03T00:36:48.140Z,2.20
2023-01-03T00:37:29.780Z,3.60
2023-01-03T00:38:11.402Z,2.22
2023-01-03T00:38:53.094Z,2.47
2023-01-03T00:39:34.750Z,2.58
2023-01-03T00:40:16.442Z,1.85
2023-01-03T00:41:06.200Z,1.90
2023-01-03T00:41:47.820Z,2.10
2023-01-03T00:42:50.497Z,2.30
2023-01-03T00:43:32.483Z,1.80
2023-01-03T00:44:14.659Z,2.10
2023-01-03T00:44:56.249Z,2.22
2023-01-03T00:45:37.820Z,2.13
2023-01-03T00:46:20.871Z,1.85
2023-01-03T00:47:02.796Z,2.20
2023-01-03T00:47:44.497Z,1.83
2023-01-03T00:48:26.573Z,2.45
2023-01-03T00:49:09.406Z,2.00
2023-01-03T00:49:51.005Z,2.15
2023-01-03T00:50:32.902Z,2.05
2023-01-03T00:51:25.654Z,2.10
2023-01-03T00:52:07.254Z,2.55
2023-01-03T00:52:48.954Z,2.20
2023-01-03T00:53:30.611Z,2.40
2023-01-03T00:54:14.416Z,2.10
2023-01-03T00:54:56.017Z,2.35
2023-01-03T00:55:39.822Z,2.20
2023-01-03T00:56:24.654Z,1.80
2023-01-03T00:57:06.249Z,2.17
2023-01-03T00:57:47.920Z,1.80
2023-01-03T00:58:33.587Z,2.67
2023-01-03T00:59:17.313Z,2.17
2023-01-03T00:59:58.955Z,1.90
2023-01-03T01:00:40.680Z,2.10
2023-01-03T01:01:26.606Z,2.95
2023-01-03T01:02:08.523Z,2.00
2023-01-03T01:02:53.697Z,1.98
2023-01-03T01:03:37.412Z,2.05
2023-01-03T01:04:31.356Z,2.33
2023-01-03T01:05:12.964Z,1.92
2023-01-03T01:05:54.564Z,2.30
2023-01-03T01:06:40.828Z,2.08
2023-01-03T01:07:22.441Z,2.28
2023-01-03T01:08:04.187Z,2.20
2023-01-03T01:08:47.251Z,2.30
2023-01-03T01:09:37.123Z,2.92
2023-01-03T01:10:20.183Z,3.08
2023-01-03T01:11:01.944Z,2.13
2023-01-03T01:11:43.729Z,2.40
2023-01-03T01:12:26.261Z,2.20
2023-01-03T01:13:07.954Z,2.28
2023-01-03T01:13:50.891Z,2.33
2023-01-03T01:14:33.641Z,2.30
2023-01-03T01:15:15.780Z,2.42
2023-01-03T01:16:02.271Z,2.53
2023-01-03T01:16:43.956Z,2.40
2023-01-03T01:17:28.267Z,2.70
2023-01-03T01:18:09.907Z,2.60
2023-01-03T01:18:53.669Z,2.38
2023-01-03T01:19:41.425Z,2.47
2023-01-03T01:20:23.023Z,2.63
2023-01-03T01:21:13.419Z,2.55
2023-01-03T01:21:55.242Z,2.13
2023-01-03T01:22:36.864Z,2.45
2023-01-03T01:23:18.460Z,2.30
2023-01-03T01:24:00.339Z,2.90
2023-01-03T01:24:45.029Z,2.25
2023-01-03T01:25:26.640Z,2.22
2023-01-03T01:26:12.088Z,2.50
2023-01-03T01:26:54.013Z,2.50
2023-01-03T01:27:35.680Z,2.88
2023-01-03T01:28:17.866Z,2.35
2023-01-03T01:28:59.587Z,3.03
2023-01-03T01:29:41.293Z,3.17
2023-01-03T01:30:23.023Z,2.00
2023-01-03T01:31:06.516Z,2.15
2023-01-03T01:31:49.332Z,2.20
2023-01-03T01:32:34.371Z,2.53
2023-01-03T01:33:16.063Z,2.53
2023-01-03T01:33:57.750Z,2.28
2023-01-03T01:34:39.563Z,2.10
2023-01-03T01:35:21.160Z,2.10
2023-01-03T01:36:10.449Z,2.60
2023-01-03T01:36:52.200Z,2.15
2023-01-03T01:37:33.826Z,2.20
2023-01-03T01:38:15.441Z,2.50
2023-01-03T01:39:02.805Z,2.47
2023-01-03T01:39:44.373Z,2.22
2023-01-03T01:40:31.405Z,1.92
2023-01-03T01:41:37.420Z,2.80
2023-01-03T01:42:38.092Z,2.40
2023-01-03T01:43:41.116Z,2.90
2023-01-03T01:44:41.514Z,2.03
2023-01-03T01:45:23.107Z,2.33
2023-01-03T01:46:17.163Z,2.28
2023-01-03T01:46:58.891Z,2.38
2023-01-03T01:48:01.662Z,2.30
2023-01-03T01:48:43.570Z,2.17
2023-01-03T01:49:26.072Z,3.13
2023-01-03T01:50:10.379Z,2.50
2023-01-03T01:50:56.328Z,2.25
2023-01-03T01:51:38.079Z,2.03
2023-01-03T01:52:20.859Z,2.28
2023-01-03T01:53:10.158Z,1.95
2023-01-03T01:53:54.458Z,2.13
2023-01-03T01:54:36.823Z,2.67
2023-01-03T01:55:24.660Z,2.67
2023-01-03T01:56:20.688Z,3.15
2023-01-03T01:57:02.340Z,2.78
2023-01-03T01:57:44.738Z,2.90
2023-01-03T01:58:31.451Z,2.92
2023-01-03T01:59:13.975Z,2.50
2023-01-03T01:59:55.800Z,2.30
2023-01-03T02:00:39.812Z,2.95
2023-01-03T02:01:23.609Z,2.72
2023-01-03T02:02:05.905Z,2.50
2023-01-03T02:02:51.057Z,2.55
2023-01-03T02:03:32.849Z,2.40
2023-01-03T02:04:25.491Z,2.92
2023-01-03T02:05:09.563Z,2.63
2023-01-03T02:05:54.153Z,2.75
2023-01-03T02:06:38.151Z,2.78
2023-01-03T02:07:21.935Z,3.55
2023-01-03T02:08:04.668Z,3.05
2023-01-03T02:08:46.326Z,3.13
2023-01-03T02:09:28.056Z,2.92
2023-01-03T02:10:10.468Z,2.85
2023-01-03T02:11:19.345Z,2.28
2023-01-03T02:12:42.299Z,2.63
2023-01-03T02:13:33.540Z,2.63
2023-01-03T02:14:33.598Z,2.80
2023-01-03T02:15:20.785Z,3.28
2023-01-03T02:16:18.471Z,2.60
2023-01-03T02:17:28.233Z,2.13
2023-01-03T02:18:35.578Z,2.97
2023-01-03T02:19:54.013Z,2.20
2023-01-03T02:20:55.150Z,2.10
2023-01-03T02:22:00.767Z,2.15
2023-01-03T02:23:16.918Z,2.10
2023-01-03T02:24:29.381Z,2.35
2023-01-03T02:25:33.985Z,2.35
2023-01-03T02:26:27.798Z,2.63
2023-01-03T02:27:54.382Z,2.45
2023-01-03T02:29:12.692Z,2.25
2023-01-03T02:30:29.725Z,2.70
2023-01-03T02:31:17.264Z,2.15
2023-01-03T02:32:13.638Z,1.75
2023-01-03T02:33:06.893Z,1.92
2023-01-03T02:33:57.328Z,3.00
2023-01-03T02:34:44.680Z,1.98
2023-01-03T02:35:40.369Z,2.30
2023-01-03T02:36:25.082Z,2.42
2023-01-03T02:37:27.404Z,2.38
2023-01-03T02:38:24.223Z,2.03
2023-01-03T02:39:17.001Z,2.40
2023-01-03T02:40:29.973Z,2.15
2023-01-03T02:41:23.518Z,2.08
2023-01-03T02:42:29.967Z,2.38
2023-01-03T02:43:26.488Z,2.00
2023-01-03T02:44:31.733Z,2.00
2023-01-03T02:45:19.042Z,2.70
2023-01-03T02:46:15.593Z,2.28
2023-01-03T02:47:07.130Z,1.70
2023-01-03T02:47:55.549Z,3.88
2023-01-03T02:48:50.913Z,1.80
2023-01-03T02:49:39.178Z,1.80
2023-01-03T02:50:26.527Z,1.80
2023-01-03T02:51:19.958Z,1.83
2023-01-03T02:52:06.356Z,2.50
2023-01-03T02:52:51.269Z,2.03
2023-01-03T02:53:44.837Z,2.10
2023-01-03T02:54:58.411Z,2.08
2023-01-03T02:55:43.135Z,2.08
2023-01-03T02:56:30.477Z,1.83
2023-01-03T02:57:20.210Z,1.98
2023-01-03T02:58:11.088Z,2.03
2023-01-03T02:58:58.973Z,2.45
2023-01-03T02:59:51.603Z,1.98
2023-01-03T03:00:38.194Z,1.92
2023-01-03T03:01:20.574Z,2.20
2023-01-03T03:02:04.959Z,1.80
2023-01-03T03:02:52.065Z,2.25
2023-01-03T03:03:37.966Z,2.10
2023-01-03T03:04:20.344Z,2.10
2023-01-03T03:05:08.785Z,2.75
2023-01-03T03:05:57.849Z,2.00
2023-01-03T03:07:01.750Z,2.15
2023-01-03T03:07:43.500Z,2.08
2023-01-03T03:08:25.213Z,1.77
2023-01-03T03:09:07.157Z,2.80
2023-01-03T03:10:08.218Z,2.33
2023-01-03T03:11:10.705Z,1.80
2023-01-03T03:12:12.921Z,2.28
2023-01-03T03:13:20.432Z,3.00
2023-01-03T03:14:17.765Z,2.00
2023-01-03T03:14:59.578Z,2.08
2023-01-03T03:16:00.009Z,1.92
2023-01-03T03:16:48.964Z,1.63
2023-01-03T03:17:30.940Z,2.10
2023-01-03T03:18:40.284Z,2.05
2023-01-03T03:19:43.628Z,2.75
2023-01-03T03:20:43.990Z,2.55
2023-01-03T03:21:51.412Z,2.58
2023-01-03T03:23:12.892Z,2.88
2023-01-03T03:24:20.317Z,2.47
2023-01-03T03:25:08.833Z,1.90
2023-01-03T03:26:13.802Z,2.38
2023-01-03T03:26:58.658Z,2.20
2023-01-03T03:28:02.055Z,2.20
2023-01-03T03:28:48.120Z,2.53
2023-01-03T03:29:30.035Z,1.63
2023-01-03T03:30:16.006Z,2.70
2023-01-03T03:31:03.531Z,2.17
2023-01-03T03:31:50.355Z,1.67
2023-01-03T03:32:33.985Z,1.90
2023-01-03T03:33:18.737Z,1.92
2023-01-03T03:34:29.417Z,1.83
2023-01-03T03:35:14.510Z,1.67
2023-01-03T03:36:14.744Z,1.85
2023-01-03T03:37:16.856Z,2.10
2023-01-03T03:38:01.996Z,2.05
2023-01-03T03:38:45.199Z,2.17
2023-01-03T03:39:47.438Z,2.08
2023-01-03T03:40:54.781Z,1.98
2023-01-03T03:42:02.491Z,1.98
2023-01-03T03:43:10.617Z,2.97
2023-01-03T03:44:19.865Z,2.00
2023-01-03T03:45:11.099Z,2.13
2023-01-03T03:46:07.273Z,2.08
2023-01-03T03:46:55.474Z,2.65
2023-01-03T03:47:42.883Z,2.25
2023-01-03T03:49:17.719Z,2.30
2023-01-03T03:50:08.387Z,1.90
2023-01-03T03:50:54.957Z,1.90
2023-01-03T03:51:42.162Z,1.90
2023-01-03T03:52:30.866Z,3.15
2023-01-03T03:53:16.052Z,2.25
2023-01-03T03:54:01.941Z,2.47
2023-01-03T03:55:08.894Z,2.33
2023-01-03T03:56:09.354Z,1.95
2023-01-03T03:57:01.788Z,1.95
2023-01-03T03:57:59.173Z,2.28
2023-01-03T03:58:43.384Z,1.90
2023-01-03T03:59:28.055Z,1.85
2023-01-03T04:00:17.675Z,1.67
2023-01-03T04:01:00.834Z,1.70
2023-01-03T04:01:43.186Z,2.28
2023-01-03T04:02:28.008Z,1.83
2023-01-03T04:03:10.912Z,2.00
2023-01-03T04:03:56.099Z,2.47
2023-01-03T04:04:43.056Z,2.13
2023-01-03T04:05:29.469Z,2.30
2023-01-03T04:06:19.920Z,1.92
2023-01-03T04:07:02.287Z,1.40
2023-01-03T04:07:44.108Z,2.20
2023-01-03T04:08:25.969Z,1.83
2023-01-03T04:09:08.724Z,2.58
2023-01-03T04:09:50.872Z,2.13
2023-01-03T04:10:37.448Z,1.85
2023-01-03T04:11:19.531Z,1.80
2023-01-03T04:12:01.206Z,1.80
2023-01-03T04:12:42.843Z,1.90
2023-01-03T04:13:24.454Z,2.10
2023-01-03T04:14:06.096Z,2.17
2023-01-03T04:14:47.774Z,1.95
2023-01-03T04:15:29.521Z,2.10
2023-01-03T04:16:11.547Z,1.65
2023-01-03T04:16:53.294Z,2.08
2023-01-03T04:17:35.010Z,3.35
2023-01-03T04:18:16.630Z,2.20
2023-01-03T04:18:58.324Z,1.88
2023-01-03T04:19:39.955Z,1.70
2023-01-03T04:20:21.585Z,1.67
2023-01-03T04:21:03.644Z,1.65
2023-01-03T04:21:45.242Z,1.70
2023-01-03T04:22:26.843Z,2.00
2023-01-03T04:23:08.489Z,1.83
2023-01-03T04:23:50.399Z,1.90
2023-01-03T04:24:31.992Z,1.65
2023-01-03T04:25:13.690Z,1.70
2023-01-03T04:25:55.377Z,1.67
2023-01-03T04:26:37.148Z,2.65
2023-01-03T04:27:18.904Z,3.08
2023-01-03T04:28:00.487Z,1.77
2023-01-03T04:28:42.170Z,1.90
2023-01-03T04:29:23.826Z,1.92
2023-01-03T04:30:06.859Z,1.95
2023-01-03T04:30:48.563Z,2.85
2023-01-03T04:31:30.268Z,3.50
2023-01-03T04:32:12.016Z,2.03
2023-01-03T04:32:54.472Z,2.30
2023-01-03T04:33:36.144Z,1.83
2023-01-03T04:34:17.793Z,2.70
2023-01-03T04:34:59.458Z,2.60
2023-01-03T04:35:41.309Z,3.22
2023-01-03T04:36:22.965Z,2.63
2023-01-03T04:37:04.615Z,3.30
2023-01-03T04:37:46.504Z,2.38
2023-01-03T04:38:28.184Z,2.40
2023-01-03T04:39:09.927Z,2.40
2023-01-03T04:39:51.583Z,2.35
2023-01-03T04:40:34.789Z,2.35
2023-01-03T04:41:16.735Z,2.00
2023-01-03T04:42:01.498Z,1.90
2023-01-03T04:43:01.998Z,2.25
2023-01-03T04:44:02.235Z,2.10
2023-01-03T04:44:43.982Z,2.40
2023-01-03T04:45:25.670Z,2.38
2023-01-03T04:46:07.350Z,2.35
2023-01-03T04:46:52.764Z,1.85
2023-01-03T04:47:35.014Z,1.70
2023-01-03T04:48:17.646Z,2.05
2023-01-03T04:48:59.988Z,2.17
2023-01-03T04:49:47.764Z,2.83
2023-01-03T04:50:30.694Z,2.08
2023-01-03T04:51:12.670Z,2.40
2023-01-03T04:51:54.310Z,2.00
2023-01-03T04:52:35.946Z,2.60
2023-01-03T04:53:17.584Z,2.00
2023-01-03T04:53:59.642Z,1.95
2023-01-03T04:54:41.817Z,2.28
2023-01-03T04:55:23.942Z,1.98
2023-01-03T04:56:05.951Z,1.90
2023-01-03T04:56:47.516Z,2.20
2023-01-03T04:57:29.168Z,2.42
2023-01-03T04:58:10.816Z,6.38
2023-01-03T04:58:52.635Z,8.88
2023-01-03T04:59:35.768Z,5.32
2023-01-03T05:00:17.713Z,4.18
2023-01-03T05:01:04.347Z,3.08
2023-01-03T05:01:51.999Z,2.25
2023-01-03T05:02:34.367Z,3.10
2023-01-03T05:03:16.153Z,1.73
2023-01-03T05:04:00.206Z,2.05
2023-01-03T05:04:42.000Z,1.90
2023-01-03T05:05:23.738Z,2.80
2023-01-03T05:06:07.975Z,2.50
2023-01-03T05:06:52.683Z,4.57
2023-01-03T05:07:34.440Z,2.50
2023-01-03T05:08:16.029Z,3.00
2023-01-03T05:08:57.743Z,2.85
2023-01-03T05:09:39.335Z,2.75
2023-01-03T05:10:20.974Z,2.15
2023-01-03T05:11:03.530Z,2.50
2023-01-03T05:11:45.141Z,2.55
2023-01-03T05:12:27.351Z,3.58
2023-01-03T05:13:09.254Z,3.08
2023-01-03T05:13:50.836Z,3.05
2023-01-03T05:14:32.521Z,3.28
2023-01-03T05:15:14.149Z,2.65
2023-01-03T05:15:55.804Z,6.10
2023-01-03T05:16:37.508Z,3.08
2023-01-03T05:17:20.410Z,4.30
2023-01-03T05:18:02.473Z,3.42
2023-01-03T05:18:44.495Z,3.60
2023-01-03T05:19:26.775Z,3.03
2023-01-03T05:20:27.448Z,3.30
2023-01-03T05:21:35.872Z,3.15
2023-01-03T05:22:36.208Z,3.10
2023-01-03T05:23:37.254Z,3.22
2023-01-03T05:24:37.526Z,3.35
2023-01-03T05:25:38.182Z,2.17
2023-01-03T05:26:21.715Z,3.05
2023-01-03T05:27:05.637Z,2.60
2023-01-03T05:27:47.323Z,2.63
2023-01-03T05:28:29.238Z,2.58
2023-01-03T05:29:12.631Z,2.80
2023-01-03T05:29:55.364Z,2.53
2023-01-03T05:30:37.082Z,2.53
2023-01-03T05:31:19.119Z,2.33
2023-01-03T05:32:01.019Z,2.60
2023-01-03T05:32:42.680Z,2.80
2023-01-03T05:33:24.606Z,2.60
2023-01-03T05:34:06.368Z,2.72
2023-01-03T05:34:48.015Z,2.10
2023-01-03T05:35:29.625Z,2.35
2023-01-03T05:36:12.563Z,2.75
2023-01-03T05:36:54.222Z,2.92
2023-01-03T05:37:35.865Z,2.80
2023-01-03T05:38:17.545Z,3.55
2023-01-03T05:38:59.120Z,3.13
2023-01-03T05:39:40.732Z,2.75
2023-01-03T05:40:22.386Z,2.90
2023-01-03T05:41:05.059Z,2.88
2023-01-03T05:42:01.818Z,3.03
2023-01-03T05:42:44.957Z,2.97
2023-01-03T05:43:26.735Z,2.58
2023-01-03T05:44:08.396Z,2.50
2023-01-03T05:44:50.454Z,2.90
2023-01-03T05:45:32.118Z,2.80
2023-01-03T05:46:13.799Z,3.17
2023-01-03T05:46:55.508Z,2.92
2023-01-03T05:47:37.137Z,3.75
2023-01-03T05:48:20.267Z,4.07
2023-01-03T05:49:01.965Z,3.72
2023-01-03T05:49:43.631Z,2.97
2023-01-03T05:50:25.525Z,3.03
2023-01-03T05:51:07.564Z,2.88
2023-01-03T05:51:49.539Z,2.88
2023-01-03T05:52:31.247Z,2.65
2023-01-03T05:53:12.968Z,2.80
2023-01-03T05:53:54.619Z,3.10
2023-01-03T05:54:36.279Z,2.90
2023-01-03T05:55:18.073Z,2.88
2023-01-03T05:56:05.008Z,2.67
2023-01-03T05:56:47.178Z,2.60
2023-01-03T05:57:35.131Z,2.60
2023-01-03T05:58:17.121Z,2.83
2023-01-03T05:58:59.409Z,2.92
2023-01-03T05:59:41.044Z,2.45
2023-01-03T06:00:22.934Z,2.95
2023-01-03T06:01:11.946Z,2.83
2023-01-03T06:01:53.720Z,2.78
2023-01-03T06:02:35.706Z,3.22
2023-01-03T06:03:17.390Z,2.80
2023-01-03T06:03:59.407Z,2.90
2023-01-03T06:04:41.131Z,2.70
2023-01-03T06:05:23.137Z,2.75
2023-01-03T06:06:06.327Z,2.67
2023-01-03T06:06:48.059Z,2.90
2023-01-03T06:07:31.077Z,2.92
2023-01-03T06:08:12.904Z,2.88
2023-01-03T06:08:54.838Z,3.03
2023-01-03T06:09:36.524Z,2.72
2023-01-03T06:10:18.393Z,4.00
2023-01-03T06:10:59.985Z,8.10
2023-01-03T06:11:41.904Z,5.55
2023-01-03T06:12:28.855Z,6.35
2023-01-03T06:13:10.472Z,5.97
2023-01-03T06:13:52.983Z,5.35
2023-01-03T06:14:34.667Z,5.18
2023-01-03T06:15:16.551Z,5.43
2023-01-03T06:16:43.460Z,6.03
2023-01-03T06:17:43.674Z,4.95
2023-01-03T06:18:25.368Z,4.53
2023-01-03T06:19:07.985Z,4.00
2023-01-03T06:19:49.686Z,3.53
2023-01-03T06:20:31.332Z,3.60
2023-01-03T06:21:12.965Z,3.95
2023-01-03T06:21:54.656Z,4.05
2023-01-03T06:22:36.366Z,4.00
2023-01-03T06:23:17.967Z,3.90
2023-01-03T06:23:59.587Z,3.72
2023-01-03T06:24:41.180Z,4.28
2023-01-03T06:25:22.870Z,3.83
2023-01-03T06:26:04.809Z,3.92
2023-01-03T06:26:46.484Z,4.05
2023-01-03T06:27:28.324Z,3.80
2023-01-03T06:28:09.962Z,3.97
2023-01-03T06:28:52.140Z,3.33
2023-01-03T06:29:33.810Z,3.95
2023-01-03T06:30:15.870Z,3.05
2023-01-03T06:30:57.557Z,3.78
2023-01-03T06:31:39.284Z,3.33
2023-01-03T06:32:21.075Z,3.25
2023-01-03T06:33:02.741Z,3.13
2023-01-03T06:33:44.495Z,3.22
2023-01-03T06:34:26.147Z,3.08
2023-01-03T06:35:08.111Z,3.00
2023-01-03T06:35:49.818Z,2.70
2023-01-03T06:36:34.589Z,4.22
2023-01-03T06:37:16.236Z,3.42
2023-01-03T06:37:57.905Z,3.38
2023-01-03T06:38:39.897Z,2.90
2023-01-03T06:39:21.613Z,3.58
2023-01-03T06:40:03.869Z,3.13
2023-01-03T06:40:49.111Z,3.10
2023-01-03T06:41:30.837Z,3.03
2023-01-03T06:42:31.114Z,3.15
2023-01-03T06:43:12.713Z,3.22
2023-01-03T06:43:54.712Z,3.00
2023-01-03T06:44:36.396Z,3.55
2023-01-03T06:45:36.748Z,4.55
2023-01-03T06:46:36.947Z,3.40
2023-01-03T06:47:37.297Z,3.67
2023-01-03T06:48:37.250Z,3.55
2023-01-03T06:49:37.686Z,3.08
2023-01-03T06:50:38.794Z,2.95
2023-01-03T06:51:40.744Z,3.53
2023-01-03T06:52:40.878Z,3.22
2023-01-03T06:53:23.047Z,4.45
2023-01-03T06:54:05.195Z,5.22
2023-01-03T06:54:46.875Z,4.05
2023-01-03T06:55:28.845Z,4.38
2023-01-03T06:56:10.489Z,3.88
2023-01-03T06:56:53.202Z,4.20
2023-01-03T06:57:36.171Z,5.63
2023-01-03T06:58:17.925Z,4.80
2023-01-03T06:58:59.588Z,5.68
2023-01-03T06:59:41.270Z,4.65
2023-01-03T07:00:22.860Z,5.35
2023-01-03T07:01:05.208Z,5.60
2023-01-03T07:01:48.375Z,5.93
2023-01-03T07:02:30.233Z,4.28
2023-01-03T07:03:12.060Z,3.72
2023-01-03T07:03:54.201Z,4.03
2023-01-03T07:04:35.939Z,3.78
2023-01-03T07:05:17.563Z,3.50
2023-01-03T07:05:59.645Z,3.35
2023-01-03T07:06:41.865Z,3.20
2023-01-03T07:07:23.580Z,3.50
2023-01-03T07:08:05.256Z,4.18
2023-01-03T07:08:48.647Z,3.20
2023-01-03T07:09:30.698Z,3.33
2023-01-03T07:10:12.564Z,5.63
2023-01-03T07:10:54.824Z,3.28
2023-01-03T07:11:37.380Z,3.85
2023-01-03T07:12:37.888Z,4.10
2023-01-03T07:13:37.857Z,3.70
2023-01-03T07:14:20.087Z,3.85
2023-01-03T07:15:01.742Z,5.05
2023-01-03T07:15:45.213Z,5.28
2023-01-03T07:16:29.511Z,4.88
2023-01-03T07:17:11.272Z,5.13
2023-01-03T07:17:52.861Z,9.57
2023-01-03T07:18:34.507Z,6.93
2023-01-03T07:19:18.803Z,6.47
2023-01-03T07:20:00.443Z,6.38
2023-01-03T07:20:44.290Z,6.28
2023-01-03T07:21:30.037Z,5.40
2023-01-03T07:22:11.702Z,5.43
2023-01-03T07:22:53.426Z,6.47
2023-01-03T07:23:35.163Z,5.85
2023-01-03T07:24:18.697Z,6.22
2023-01-03T07:25:00.461Z,5.95
2023-01-03T07:25:42.450Z,6.20
2023-01-03T07:26:25.193Z,5.72
2023-01-03T07:27:06.888Z,6.30
2023-01-03T07:28:01.850Z,5.43
2023-01-03T07:28:47.269Z,6.03
2023-01-03T07:29:28.926Z,6.40
2023-01-03T07:30:11.159Z,5.97
2023-01-03T07:30:52.855Z,5.25
2023-01-03T07:31:35.153Z,5.47
2023-01-03T07:32:16.868Z,6.45
2023-01-03T07:32:58.513Z,5.30
2023-01-03T07:33:40.199Z,5.78
2023-01-03T07:34:21.932Z,5.57
2023-01-03T07:35:03.861Z,5.28
2023-01-03T07:35:45.833Z,5.47
2023-01-03T07:36:27.894Z,5.40
2023-01-03T07:37:09.582Z,5.40
2023-01-03T07:37:51.265Z,5.55
2023-01-03T07:38:33.301Z,6.05
2023-01-03T07:39:14.996Z,5.40
2023-01-03T07:39:56.661Z,6.03
2023-01-03T07:40:38.880Z,5.95
2023-01-03T07:41:20.603Z,6.78
2023-01-03T07:42:20.616Z,8.13
2023-01-03T07:43:20.641Z,7.38
2023-01-03T07:44:02.305Z,7.05
2023-01-03T07:44:43.878Z,7.10
2023-01-03T07:45:25.486Z,7.15
2023-01-03T07:46:21.887Z,6.68
2023-01-03T07:47:03.680Z,7.30
2023-01-03T07:47:45.926Z,6.88
2023-01-03T07:48:27.608Z,7.70
2023-01-03T07:49:11.976Z,6.60
2023-01-03T07:49:54.140Z,6.88
2023-01-03T07:50:37.533Z,7.93
2023-01-03T07:51:21.096Z,8.80
2023-01-03T07:52:02.946Z,9.25
2023-01-03T07:52:44.616Z,8.32
2023-01-03T07:53:26.446Z,8.93
2023-01-03T07:54:08.206Z,8.48
2023-01-03T07:54:49.897Z,9.05
2023-01-03T07:55:39.454Z,8.50
2023-01-03T07:56:24.974Z,9.30
2023-01-03T07:57:06.661Z,8.27
2023-01-03T07:57:48.427Z,13.63
2023-01-03T07:58:30.415Z,9.10
2023-01-03T07:59:12.085Z,8.90
2023-01-03T07:59:53.715Z,8.25
2023-01-03T08:00:35.384Z,8.25
2023-01-03T08:01:20.243Z,7.60
2023-01-03T08:02:02.083Z,6.95
2023-01-03T08:02:43.934Z,7.75
2023-01-03T08:03:25.789Z,6.90
2023-01-03T08:04:07.416Z,8.10
2023-01-03T08:04:49.130Z,10.63
2023-01-03T08:05:30.818Z,11.07
2023-01-03T08:06:15.300Z,7.28
2023-01-03T08:06:58.082Z,7.10
2023-01-03T08:07:39.786Z,8.25
2023-01-03T08:08:21.406Z,7.05
2023-01-03T08:09:21.876Z,6.78
2023-01-03T08:10:22.374Z,10.57
2023-01-03T08:11:22.936Z,6.45
2023-01-03T08:12:24.203Z,8.05
2023-01-03T08:13:18.226Z,10.32
2023-01-03T08:14:00.266Z,8.23
2023-01-03T08:14:41.855Z,8.13
2023-01-03T08:15:23.550Z,8.63
2023-01-03T08:16:05.915Z,9.32
2023-01-03T08:16:47.613Z,7.53
2023-01-03T08:17:29.218Z,7.53
2023-01-03T08:18:11.887Z,7.40
2023-01-03T08:18:54.636Z,7.05
2023-01-03T08:19:41.680Z,7.63
2023-01-03T08:20:26.953Z,8.40
2023-01-03T08:21:11.490Z,7.40
2023-01-03T08:21:53.177Z,9.30
2023-01-03T08:22:34.824Z,8.43
2023-01-03T08:23:16.469Z,11.80
2023-01-03T08:23:58.158Z,17.05
2023-01-03T08:24:39.776Z,19.08
2023-01-03T08:25:21.698Z,12.30
2023-01-03T08:26:06.174Z,9.45
2023-01-03T08:26:48.365Z,10.43
2023-01-03T08:27:30.000Z,9.45
2023-01-03T08:28:11.780Z,9.57
2023-01-03T08:28:53.397Z,12.45
2023-01-03T08:29:35.038Z,11.40
2023-01-03T08:30:16.911Z,12.18
2023-01-03T08:31:00.778Z,11.77
2023-01-03T08:31:49.544Z,12.57
2023-01-03T08:32:33.636Z,13.90
2023-01-03T08:33:18.497Z,15.35
2023-01-03T08:34:09.034Z,16.85
2023-01-03T08:34:54.423Z,17.27
2023-01-03T08:35:38.327Z,17.60
2023-01-03T08:36:21.796Z,18.63
2023-01-03T08:37:10.212Z,15.70
2023-01-03T08:37:53.249Z,16.70
2023-01-03T08:38:44.693Z,22.42
2023-01-03T08:39:31.736Z,18.83
2023-01-03T08:40:17.757Z,16.20
2023-01-03T08:41:02.522Z,14.55
2023-01-03T08:41:50.701Z,11.60
2023-01-03T08:42:33.843Z,10.65
2023-01-03T08:43:16.628Z,10.77
2023-01-03T08:44:00.908Z,9.52
2023-01-03T08:44:45.133Z,7.35
2023-01-03T08:45:27.474Z,7.20
2023-01-03T08:46:12.205Z,7.88
2023-01-03T08:46:57.894Z,7.80
2023-01-03T08:47:41.240Z,6.95
2023-01-03T08:48:23.693Z,7.22
2023-01-03T08:49:05.588Z,6.85
2023-01-03T08:49:47.317Z,6.72
2023-01-03T08:50:30.638Z,6.55
2023-01-03T08:51:12.513Z,6.63
2023-01-03T08:51:54.243Z,6.30
2023-01-03T08:52:35.921Z,6.25
2023-01-03T08:53:17.647Z,6.15
2023-01-03T08:53:59.301Z,12.57
2023-01-03T08:54:41.160Z,12.85
2023-01-03T08:55:23.208Z,13.90
2023-01-03T08:56:06.114Z,11.32
2023-01-03T08:56:47.938Z,10.57
2023-01-03T08:57:29.710Z,13.60
2023-01-03T08:58:11.462Z,11.00
2023-01-03T08:58:53.184Z,9.75
2023-01-03T08:59:35.007Z,9.45
2023-01-03T09:00:17.003Z,13.75
2023-01-03T09:01:06.811Z,15.35
2023-01-03T09:01:48.731Z,14.65
2023-01-03T09:02:33.947Z,16.33
2023-01-03T09:03:15.826Z,14.25
2023-01-03T09:03:57.860Z,12.63
2023-01-03T09:04:39.540Z,12.63
2023-01-03T09:05:21.616Z,10.20
2023-01-03T09:06:04.647Z,10.82
2023-01-03T09:06:46.365Z,9.40
2023-01-03T09:07:28.233Z,10.50
2023-01-03T09:08:09.870Z,11.57
2023-01-03T09:08:51.564Z,8.73
2023-01-03T09:09:33.573Z,11.82
2023-01-03T09:10:15.338Z,12.45
2023-01-03T09:10:57.953Z,11.63
2023-01-03T09:11:39.644Z,12.00
2023-01-03T09:12:21.358Z,12.30
2023-01-03T09:13:04.204Z,12.10
2023-01-03T09:13:45.942Z,12.25
2023-01-03T09:14:30.651Z,10.32
2023-01-03T09:15:12.389Z,8.70
2023-01-03T09:16:03.971Z,9.27
2023-01-03T09:16:49.199Z,9.02
2023-01-03T09:17:31.347Z,9.10
2023-01-03T09:18:13.028Z,8.90
2023-01-03T09:18:54.831Z,8.57
2023-01-03T09:19:36.559Z,9.43
2023-01-03T09:20:18.811Z,8.80
2023-01-03T09:21:01.755Z,9.30
2023-01-03T09:21:43.372Z,8.90
2023-01-03T09:22:25.063Z,9.00
2023-01-03T09:23:06.854Z,9.27
2023-01-03T09:23:48.540Z,8.98
2023-01-03T09:24:30.175Z,9.18
2023-01-03T09:25:11.811Z,8.93
2023-01-03T09:25:53.562Z,9.43
2023-01-03T09:26:35.236Z,8.98
2023-01-03T09:27:16.918Z,9.02
2023-01-03T09:27:59.291Z,9.23
2023-01-03T09:28:40.947Z,8.85
2023-01-03T09:29:22.691Z,8.98
2023-01-03T09:30:04.975Z,9.10
2023-01-03T09:30:46.646Z,9.48
2023-01-03T09:31:29.907Z,10.15
2023-01-03T09:32:11.818Z,15.95
2023-01-03T09:32:53.515Z,26.85
2023-01-03T09:33:35.191Z,27.77
2023-01-03T09:34:16.862Z,30.77
2023-01-03T09:34:58.619Z,35.03
2023-01-03T09:35:40.386Z,36.78
2023-01-03T09:36:22.032Z,27.92
2023-01-03T09:37:04.480Z,25.23
2023-01-03T09:37:49.254Z,22.40
2023-01-03T09:38:31.069Z,23.15
2023-01-03T09:39:14.362Z,19.90
2023-01-03T09:39:56.106Z,17.50
2023-01-03T09:40:45.055Z,13.05
2023-01-03T09:41:27.556Z,13.13
2023-01-03T09:42:37.403Z,11.27
2023-01-03T09:43:25.482Z,9.48
2023-01-03T09:44:09.047Z,9.85
2023-01-03T09:44:51.086Z,8.07
2023-01-03T09:45:34.765Z,7.88
2023-01-03T09:46:27.261Z,6.65
2023-01-03T09:47:18.675Z,5.20
2023-01-03T09:48:03.250Z,4.93
2023-01-03T09:48:45.964Z,4.80
2023-01-03T09:49:27.633Z,5.97
2023-01-03T09:50:50.747Z,4.32
2023-01-03T09:51:39.471Z,4.63
2023-01-03T09:52:41.226Z,4.30
2023-01-03T09:53:47.363Z,4.15
2023-01-03T09:54:50.288Z,3.75
2023-01-03T09:56:05.597Z,3.38
2023-01-03T09:57:06.645Z,3.53
2023-01-03T09:58:06.729Z,3.30
2023-01-03T09:59:12.421Z,4.00
2023-01-03T10:00:12.760Z,3.55
2023-01-03T10:01:15.427Z,3.40
2023-01-03T10:02:46.908Z,3.75
2023-01-03T10:03:52.850Z,5.15
2023-01-03T10:05:08.493Z,6.43
2023-01-03T10:06:04.049Z,7.63
2023-01-03T10:07:13.703Z,7.95
2023-01-03T10:08:11.050Z,7.72
2023-01-03T10:09:30.371Z,7.90
2023-01-03T10:10:27.382Z,7.45
2023-01-03T10:11:28.711Z,7.03
2023-01-03T10:12:16.304Z,7.78
2023-01-03T10:13:20.273Z,7.88
2023-01-03T10:14:17.360Z,8.13